createdAt,value
2017-10-18T00:00:11.052Z,99.8
2017-10-18T00:01:12.676Z,99.9
2017-10-18T00:02:14.301Z,98.8
2017-10-18T00:03:15.923Z,98.7
2017-10-18T00:04:17.551Z,98.4
2017-10-18T00:05:19.174Z,97.9
2017-10-18T00:06:20.800Z,98.5
2017-10-18T00:07:22.425Z,98.6
2017-10-18T00:08:24.055Z,98.3
2017-10-18T00:09:25.673Z,97.9
2017-10-18T00:10:27.304Z,97.7
2017-10-18T00:11:28.933Z,97.6
2017-10-18T00:12:30.550Z,96.5
2017-10-18T00:13:32.182Z,96.7
2017-10-18T00:14:33.803Z,97.0
2017-10-18T00:15:35.431Z,96.6
2017-10-18T00:16:37.054Z,97.5
2017-10-18T00:17:38.675Z,97.2
2017-10-18T00:18:40.306Z,97.7
2017-10-18T00:19:41.927Z,97.8
2017-10-18T00:20:43.560Z,98.7
2017-10-18T00:21:45.179Z,98.9
2017-10-18T00:22:46.803Z,98.9
2017-10-18T00:23:48.430Z,100.0
2017-10-18T00:24:50.060Z,99.7
2017-10-18T00:25:51.681Z,100.0
2017-10-18T00:26:53.307Z,100.0
2017-10-18T00:27:54.932Z,100.0
2017-10-18T00:28:56.566Z,100.0
2017-10-18T00:29:58.186Z,99.6
2017-10-18T00:30:59.808Z,99.3
2017-10-18T00:32:01.433Z,99.7
2017-10-18T00:33:03.060Z,99.3
2017-10-18T00:34:04.686Z,98.7
2017-10-18T00:35:06.310Z,98.9
2017-10-18T00:36:07.949Z,98.8
2017-10-18T00:37:09.575Z,98.4
2017-10-18T00:38:11.198Z,98.3
2017-10-18T00:39:12.824Z,98.5
2017-10-18T00:40:14.449Z,98.8
2017-10-18T00:41:16.082Z,98.8
2017-10-18T00:42:17.698Z,99.1
2017-10-18T00:43:19.334Z,98.8
2017-10-18T00:44:20.959Z,98.4
2017-10-18T00:45:22.581Z,98.3
2017-10-18T00:46:24.207Z,98.6
2017-10-18T00:47:25.832Z,99.2
2017-10-18T00:48:27.461Z,100.0
2017-10-18T00:49:29.088Z,99.6
2017-10-18T00:50:30.713Z,100.0
2017-10-18T00:51:32.341Z,100.0
2017-10-18T00:52:33.962Z,100.0
2017-10-18T00:53:35.587Z,100.0
2017-10-18T00:54:37.212Z,100.0
2017-10-18T00:55:38.839Z,100.0
2017-10-18T00:56:40.465Z,100.0
2017-10-18T00:57:42.089Z,100.0
2017-10-18T00:58:43.719Z,100.0
2017-10-18T00:59:45.342Z,100.0
2017-10-18T01:00:46.969Z,100.0
2017-10-18T01:01:48.592Z,100.0
2017-10-18T01:02:50.225Z,99.7
2017-10-18T01:03:51.852Z,99.5
2017-10-18T01:04:53.477Z,99.3
2017-10-18T01:05:55.103Z,98.8
2017-10-18T01:06:56.726Z,98.7
2017-10-18T01:07:58.351Z,98.0
2017-10-18T01:08:59.975Z,98.5
2017-10-18T01:10:01.602Z,98.2
2017-10-18T01:11:03.229Z,98.2
2017-10-18T01:12:04.849Z,99.0
2017-10-18T01:13:06.478Z,98.7
2017-10-18T01:14:08.103Z,97.9
2017-10-18T01:15:09.726Z,97.5
2017-10-18T01:16:11.346Z,97.5
2017-10-18T01:17:12.980Z,97.5
2017-10-18T01:18:14.609Z,97.8
2017-10-18T01:19:16.232Z,97.7
2017-10-18T01:20:17.856Z,98.4
2017-10-18T01:21:19.482Z,99.7
2017-10-18T01:22:21.105Z,98.6
2017-10-18T01:23:22.743Z,98.9
2017-10-18T01:24:24.360Z,99.7
2017-10-18T01:25:25.987Z,99.7
2017-10-18T01:26:27.609Z,99.0
2017-10-18T01:27:29.235Z,98.9
2017-10-18T01:28:30.858Z,98.9
2017-10-18T01:29:32.488Z,98.5
2017-10-18T01:30:34.109Z,98.8
2017-10-18T01:31:35.736Z,98.8
2017-10-18T01:32:37.370Z,98.9
2017-10-18T01:33:38.987Z,98.5
2017-10-18T01:34:40.610Z,98.8
2017-10-18T01:35:42.236Z,98.6
2017-10-18T01:36:43.861Z,98.1
2017-10-18T01:37:45.488Z,98.3
2017-10-18T01:38:47.113Z,98.8
2017-10-18T01:39:48.741Z,99.7
2017-10-18T01:40:50.363Z,99.7
2017-10-18T01:41:51.992Z,100.0
2017-10-18T01:42:53.617Z,100.0
2017-10-18T01:43:55.242Z,100.0
2017-10-18T01:44:56.869Z,100.0
2017-10-18T01:45:58.496Z,100.0
2017-10-18T01:47:00.124Z,100.0
2017-10-18T01:48:01.751Z,100.0
2017-10-18T01:49:03.377Z,100.0
2017-10-18T01:50:04.999Z,100.0
2017-10-18T01:51:06.630Z,100.0
2017-10-18T01:52:08.251Z,100.0
2017-10-18T01:53:09.878Z,100.0
2017-10-18T01:54:11.508Z,100.0
2017-10-18T01:55:13.132Z,100.0
2017-10-18T01:56:14.763Z,100.0
2017-10-18T01:57:16.384Z,100.0
2017-10-18T01:58:18.009Z,100.0
2017-10-18T01:59:19.638Z,100.0
2017-10-18T02:00:21.264Z,100.0
2017-10-18T02:01:22.892Z,100.0
2017-10-18T02:02:24.516Z,100.0
2017-10-18T02:03:26.141Z,100.0
2017-10-18T02:04:27.766Z,100.0
2017-10-18T02:05:29.395Z,100.0
2017-10-18T02:06:31.019Z,100.0
2017-10-18T02:07:32.645Z,99.8
2017-10-18T02:08:34.273Z,100.0
2017-10-18T02:09:35.894Z,99.4
2017-10-18T02:10:37.524Z,99.4
2017-10-18T02:11:39.146Z,99.0
2017-10-18T02:12:40.771Z,99.0
2017-10-18T02:13:42.398Z,98.7
2017-10-18T02:14:44.029Z,98.7
2017-10-18T02:15:45.660Z,97.8
2017-10-18T02:16:47.279Z,97.7
2017-10-18T02:17:48.907Z,97.9
2017-10-18T02:18:50.529Z,97.9
2017-10-18T02:19:52.155Z,98.5
2017-10-18T02:20:53.778Z,97.8
2017-10-18T02:21:55.403Z,97.7
2017-10-18T02:22:57.027Z,98.7
2017-10-18T02:23:58.652Z,98.5
2017-10-18T02:25:00.280Z,98.6
2017-10-18T02:26:01.904Z,98.3
2017-10-18T02:27:03.543Z,98.0
2017-10-18T02:28:05.153Z,97.6
2017-10-18T02:29:06.778Z,98.1
2017-10-18T02:30:08.406Z,98.4
2017-10-18T02:31:10.028Z,98.9
2017-10-18T02:32:11.652Z,98.7
2017-10-18T02:33:13.277Z,98.5
2017-10-18T02:34:14.900Z,98.9
2017-10-18T02:35:16.524Z,99.1
2017-10-18T02:36:18.155Z,99.7
2017-10-18T02:37:19.774Z,99.6
2017-10-18T02:38:21.401Z,99.3
2017-10-18T02:39:23.026Z,100.0
2017-10-18T02:40:24.651Z,100.0
2017-10-18T02:41:26.278Z,100.0
2017-10-18T02:42:27.903Z,100.0
2017-10-18T02:43:29.531Z,100.0
2017-10-18T02:44:31.160Z,100.0
2017-10-18T02:45:32.784Z,100.0
2017-10-18T02:46:34.408Z,100.0
2017-10-18T02:47:36.039Z,100.0
2017-10-18T02:48:37.660Z,100.0
2017-10-18T02:49:39.287Z,100.0
2017-10-18T02:50:40.914Z,100.0
2017-10-18T02:51:42.543Z,100.0
2017-10-18T02:52:44.168Z,100.0
2017-10-18T02:53:45.789Z,100.0
2017-10-18T02:54:47.417Z,100.0
2017-10-18T02:55:49.044Z,100.0
2017-10-18T02:56:50.670Z,100.0
2017-10-18T02:57:52.296Z,100.0
2017-10-18T02:58:53.924Z,100.0
2017-10-18T02:59:55.545Z,100.0
2017-10-18T03:00:57.175Z,100.0
2017-10-18T03:01:58.798Z,100.0
2017-10-18T03:03:00.425Z,100.0
2017-10-18T03:04:02.055Z,100.0
2017-10-18T03:05:03.679Z,100.0
2017-10-18T03:06:05.312Z,100.0
2017-10-18T03:07:06.933Z,100.0
2017-10-18T03:08:08.560Z,100.0
2017-10-18T03:09:10.188Z,100.0
2017-10-18T03:10:11.811Z,100.0
2017-10-18T03:11:13.439Z,100.0
2017-10-18T03:12:15.065Z,100.0
2017-10-18T03:13:16.691Z,100.0
2017-10-18T03:14:18.317Z,100.0
2017-10-18T03:15:19.940Z,100.0
2017-10-18T03:16:21.566Z,100.0
2017-10-18T03:17:23.194Z,100.0
2017-10-18T03:18:24.820Z,100.0
2017-10-18T03:19:26.444Z,100.0
2017-10-18T03:20:28.073Z,100.0
2017-10-18T03:21:29.698Z,100.0
2017-10-18T03:22:31.325Z,100.0
2017-10-18T03:23:32.952Z,100.0
2017-10-18T03:24:34.576Z,100.0
2017-10-18T03:25:36.204Z,100.0
2017-10-18T03:26:37.828Z,100.0
2017-10-18T03:27:39.457Z,100.0
2017-10-18T03:28:41.095Z,100.0
2017-10-18T03:29:42.720Z,100.0
2017-10-18T03:30:44.353Z,100.0
2017-10-18T03:31:45.979Z,100.0
2017-10-18T03:32:47.601Z,100.0
2017-10-18T03:33:49.225Z,100.0
2017-10-18T03:34:50.855Z,100.0
2017-10-18T03:35:52.476Z,100.0
2017-10-18T03:36:54.106Z,100.0
2017-10-18T03:37:55.737Z,100.0
2017-10-18T03:38:57.363Z,100.0
2017-10-18T03:39:58.989Z,100.0
2017-10-18T03:41:00.616Z,100.0
2017-10-18T03:42:02.242Z,100.0
2017-10-18T03:43:03.869Z,100.0
2017-10-18T03:44:05.505Z,100.0
2017-10-18T03:45:07.122Z,100.0
2017-10-18T03:46:08.751Z,100.0
2017-10-18T03:47:10.372Z,100.0
2017-10-18T03:48:12.000Z,100.0
2017-10-18T03:49:13.631Z,100.0
2017-10-18T03:50:15.255Z,100.0
2017-10-18T03:51:16.879Z,100.0
2017-10-18T03:52:18.521Z,100.0
2017-10-18T03:53:20.132Z,100.0
2017-10-18T03:54:21.759Z,100.0
2017-10-18T03:55:23.386Z,100.0
2017-10-18T03:56:25.014Z,100.0
2017-10-18T03:57:26.640Z,100.0
2017-10-18T03:58:28.264Z,100.0
2017-10-18T03:59:29.887Z,100.0
2017-10-18T04:00:31.518Z,100.0
2017-10-18T04:01:33.150Z,100.0
2017-10-18T04:02:34.770Z,100.0
2017-10-18T04:03:36.402Z,100.0
2017-10-18T04:04:38.022Z,100.0
2017-10-18T04:05:39.649Z,100.0
2017-10-18T04:06:41.274Z,100.0
2017-10-18T04:07:42.900Z,100.0
2017-10-18T04:08:44.526Z,100.0
2017-10-18T04:09:46.153Z,100.0
2017-10-18T04:10:47.781Z,100.0
2017-10-18T04:11:49.407Z,100.0
2017-10-18T04:12:51.030Z,100.0
2017-10-18T04:13:52.656Z,100.0
2017-10-18T04:14:54.280Z,100.0
2017-10-18T04:15:55.907Z,100.0
2017-10-18T04:16:57.536Z,100.0
2017-10-18T04:17:59.165Z,100.0
2017-10-18T04:19:00.787Z,100.0
2017-10-18T04:20:02.416Z,100.0
2017-10-18T04:21:04.045Z,100.0
2017-10-18T04:22:05.671Z,100.0
2017-10-18T04:23:07.296Z,100.0
2017-10-18T04:24:08.924Z,100.0
2017-10-18T04:25:10.552Z,100.0
2017-10-18T04:26:12.181Z,100.0
2017-10-18T04:27:13.807Z,100.0
2017-10-18T04:28:15.433Z,100.0
2017-10-18T04:29:17.057Z,100.0
2017-10-18T04:30:18.685Z,100.0
2017-10-18T04:31:20.319Z,100.0
2017-10-18T04:32:21.949Z,100.0
2017-10-18T04:33:23.571Z,100.0
2017-10-18T04:34:25.202Z,100.0
2017-10-18T04:35:26.826Z,100.0
2017-10-18T04:36:28.449Z,100.0
2017-10-18T04:37:30.078Z,100.0
2017-10-18T04:38:31.706Z,99.8
2017-10-18T04:39:33.334Z,99.6
2017-10-18T04:40:37.123Z,99.5
2017-10-18T04:41:38.535Z,99.2
2017-10-18T04:42:40.160Z,99.9
2017-10-18T04:43:41.784Z,99.7
2017-10-18T04:44:43.408Z,99.5
2017-10-18T04:45:45.034Z,99.3
2017-10-18T04:46:46.661Z,100.0
2017-10-18T04:47:48.285Z,100.0
2017-10-18T04:48:49.921Z,100.0
2017-10-18T04:49:51.550Z,100.0
2017-10-18T04:50:53.175Z,100.0
2017-10-18T04:51:54.800Z,100.0
2017-10-18T04:52:56.429Z,100.0
2017-10-18T04:53:58.055Z,100.0
2017-10-18T04:54:59.680Z,100.0
2017-10-18T04:56:01.307Z,100.0
2017-10-18T04:57:02.934Z,100.0
2017-10-18T04:58:04.564Z,100.0
2017-10-18T04:59:06.193Z,100.0
2017-10-18T05:00:07.832Z,100.0
2017-10-18T05:01:09.463Z,100.0
2017-10-18T05:02:11.109Z,100.0
2017-10-18T05:03:12.740Z,100.0
2017-10-18T05:04:14.408Z,100.0
2017-10-18T05:05:16.016Z,99.3
2017-10-18T05:06:19.634Z,99.6
2017-10-18T05:07:21.064Z,99.2
2017-10-18T05:08:22.694Z,100.0
2017-10-18T05:09:24.322Z,99.8
2017-10-18T05:10:25.940Z,100.0
2017-10-18T05:11:27.566Z,100.0
2017-10-18T05:12:29.206Z,100.0
2017-10-18T05:13:30.831Z,100.0
2017-10-18T05:14:32.457Z,100.0
2017-10-18T05:15:34.086Z,100.0
2017-10-18T05:16:35.708Z,99.9
2017-10-18T05:17:37.331Z,100.0
2017-10-18T05:18:38.957Z,100.0
2017-10-18T05:19:40.599Z,100.0
2017-10-18T05:20:42.224Z,100.0
2017-10-18T05:21:43.847Z,100.0
2017-10-18T05:22:45.474Z,100.0
2017-10-18T05:23:47.109Z,100.0
2017-10-18T05:24:49.603Z,100.0
2017-10-18T05:25:51.599Z,100.0
2017-10-18T05:26:53.524Z,100.0
2017-10-18T05:27:55.156Z,100.0
2017-10-18T05:28:56.774Z,100.0
2017-10-18T05:29:58.401Z,100.0
2017-10-18T05:31:00.021Z,100.0
2017-10-18T05:32:01.649Z,100.0
2017-10-18T05:33:03.272Z,100.0
2017-10-18T05:34:04.895Z,100.0
2017-10-18T05:35:06.525Z,100.0
2017-10-18T05:36:08.160Z,100.0
2017-10-18T05:37:09.787Z,100.0
2017-10-18T05:38:11.411Z,100.0
2017-10-18T05:39:13.037Z,100.0
2017-10-18T05:40:14.660Z,100.0
2017-10-18T05:41:16.285Z,100.0
2017-10-18T05:42:17.910Z,99.8
2017-10-18T05:43:19.536Z,99.2
2017-10-18T05:44:21.162Z,99.6
2017-10-18T05:45:22.788Z,100.0
2017-10-18T05:46:24.412Z,99.2
2017-10-18T05:47:26.039Z,99.5
2017-10-18T05:48:27.674Z,99.4
2017-10-18T05:49:29.291Z,99.6
2017-10-18T05:50:30.914Z,99.3
2017-10-18T05:51:32.540Z,98.8
2017-10-18T05:52:34.166Z,98.9
2017-10-18T05:53:35.791Z,98.8
2017-10-18T05:54:37.414Z,98.5
2017-10-18T05:55:39.039Z,98.8
2017-10-18T05:56:40.669Z,99.7
2017-10-18T05:57:42.294Z,99.8
2017-10-18T05:58:43.923Z,100.0
2017-10-18T05:59:45.551Z,100.0
2017-10-18T06:00:47.177Z,100.0
2017-10-18T06:01:48.806Z,100.0
2017-10-18T06:02:50.433Z,100.0
2017-10-18T06:03:52.062Z,100.0
2017-10-18T06:04:53.691Z,100.0
2017-10-18T06:05:55.326Z,100.0
2017-10-18T06:06:56.952Z,100.0
2017-10-18T06:07:58.585Z,100.0
2017-10-18T06:09:00.210Z,100.0
2017-10-18T06:10:01.839Z,99.7
2017-10-18T06:11:03.479Z,99.7
2017-10-18T06:12:05.110Z,99.1
2017-10-18T06:13:06.758Z,99.6
2017-10-18T06:14:08.427Z,99.4
2017-10-18T06:15:10.042Z,99.4
2017-10-18T06:16:11.673Z,100.0
2017-10-18T06:17:13.302Z,99.4
2017-10-18T06:18:14.950Z,99.0
2017-10-18T06:19:16.556Z,98.3
2017-10-18T06:20:18.192Z,97.7
2017-10-18T06:21:19.816Z,98.5
2017-10-18T06:22:21.443Z,98.7
2017-10-18T06:23:23.072Z,99.7
2017-10-18T06:24:24.706Z,100.0
2017-10-18T06:25:26.336Z,100.0
2017-10-18T06:26:27.962Z,100.0
2017-10-18T06:27:29.596Z,100.0
2017-10-18T06:28:31.221Z,100.0
2017-10-18T06:29:32.853Z,100.0
2017-10-18T06:30:34.483Z,100.0
2017-10-18T06:31:36.111Z,100.0
2017-10-18T06:32:37.743Z,100.0
2017-10-18T06:33:39.379Z,100.0
2017-10-18T06:34:41.003Z,100.0
2017-10-18T06:35:42.638Z,100.0
2017-10-18T06:36:44.265Z,100.0
2017-10-18T06:37:45.897Z,100.0
2017-10-18T06:38:47.530Z,100.0
2017-10-18T06:39:49.158Z,100.0
2017-10-18T06:40:50.787Z,100.0
2017-10-18T06:41:52.452Z,100.0
2017-10-18T06:42:54.083Z,100.0
2017-10-18T06:43:55.714Z,100.0
2017-10-18T06:44:57.340Z,100.0
2017-10-18T06:45:58.977Z,100.0
2017-10-18T06:47:00.606Z,100.0
2017-10-18T06:48:02.235Z,100.0
2017-10-18T06:49:03.865Z,100.0
2017-10-18T06:50:05.498Z,100.0
2017-10-18T06:51:07.125Z,100.0
2017-10-18T06:52:08.756Z,100.0
2017-10-18T06:53:10.384Z,99.7
2017-10-18T06:54:12.013Z,99.1
2017-10-18T06:55:13.641Z,99.1
2017-10-18T06:56:15.277Z,98.6
2017-10-18T06:57:16.905Z,98.2
2017-10-18T06:58:18.539Z,98.3
2017-10-18T06:59:20.167Z,97.3
2017-10-18T07:00:21.796Z,97.6
2017-10-18T07:01:23.426Z,97.2
2017-10-18T07:02:25.059Z,96.8
2017-10-18T07:03:26.689Z,97.8
2017-10-18T07:04:28.319Z,97.7
2017-10-18T07:05:29.947Z,96.7
2017-10-18T07:06:31.575Z,96.7
2017-10-18T07:07:33.204Z,96.4
2017-10-18T07:08:34.833Z,97.0
2017-10-18T07:09:36.464Z,97.8
2017-10-18T07:10:38.092Z,97.7
2017-10-18T07:11:39.722Z,97.3
2017-10-18T07:12:41.353Z,97.1
2017-10-18T07:13:42.980Z,96.8
2017-10-18T07:14:44.614Z,97.4
2017-10-18T07:15:46.243Z,96.6
2017-10-18T07:16:47.877Z,96.7
2017-10-18T07:17:49.512Z,97.1
2017-10-18T07:18:51.137Z,97.5
2017-10-18T07:19:52.767Z,97.7
2017-10-18T07:20:54.397Z,97.9
2017-10-18T07:21:56.025Z,98.3
2017-10-18T07:22:57.657Z,97.9
2017-10-18T07:23:59.287Z,98.5
2017-10-18T07:25:00.918Z,98.2
2017-10-18T07:26:02.554Z,98.6
2017-10-18T07:27:04.184Z,98.8
2017-10-18T07:28:05.814Z,99.0
2017-10-18T07:29:07.441Z,98.8
2017-10-18T07:30:09.072Z,99.1
2017-10-18T07:31:10.704Z,98.9
2017-10-18T07:32:12.338Z,99.5
2017-10-18T07:33:13.980Z,99.0
2017-10-18T07:34:15.616Z,97.9
2017-10-18T07:35:17.241Z,97.6
2017-10-18T07:36:18.875Z,96.8
2017-10-18T07:37:20.502Z,96.5
2017-10-18T07:38:22.136Z,96.8
2017-10-18T07:39:23.769Z,96.5
2017-10-18T07:40:25.398Z,95.8
2017-10-18T07:41:27.028Z,96.4
2017-10-18T07:42:28.661Z,96.6
2017-10-18T07:43:30.295Z,97.0
2017-10-18T07:44:31.927Z,96.0
2017-10-18T07:45:33.560Z,95.7
2017-10-18T07:46:35.194Z,95.6
2017-10-18T07:47:36.829Z,96.5
2017-10-18T07:48:38.459Z,96.0
2017-10-18T07:49:40.093Z,94.0
2017-10-18T07:50:41.724Z,93.3
2017-10-18T07:51:43.357Z,92.0
2017-10-18T07:52:44.987Z,90.8
2017-10-18T07:53:46.622Z,90.7
2017-10-18T07:54:48.251Z,90.4
2017-10-18T07:55:49.889Z,90.5
2017-10-18T07:56:51.531Z,88.9
2017-10-18T07:57:53.162Z,87.7
2017-10-18T07:58:54.795Z,89.1
2017-10-18T07:59:56.430Z,88.0
2017-10-18T08:00:58.067Z,87.7
2017-10-18T08:01:59.694Z,87.8
2017-10-18T08:03:01.325Z,88.5
2017-10-18T08:04:02.960Z,89.9
2017-10-18T08:05:04.599Z,88.5
2017-10-18T08:06:06.233Z,87.5
2017-10-18T08:07:07.864Z,86.7
2017-10-18T08:08:09.497Z,86.0
2017-10-18T08:09:11.129Z,86.4
2017-10-18T08:10:12.768Z,86.2
2017-10-18T08:11:14.396Z,86.4
2017-10-18T08:12:16.027Z,86.5
2017-10-18T08:13:17.661Z,86.7
2017-10-18T08:14:19.290Z,86.7
2017-10-18T08:15:20.929Z,87.1
2017-10-18T08:16:22.565Z,85.9
2017-10-18T08:17:24.196Z,85.9
2017-10-18T08:18:25.831Z,86.5
2017-10-18T08:19:27.465Z,86.5
2017-10-18T08:20:29.099Z,86.5
2017-10-18T08:21:30.772Z,86.2
2017-10-18T08:22:32.401Z,85.4
2017-10-18T08:23:34.035Z,85.1
2017-10-18T08:24:35.667Z,84.9
2017-10-18T08:25:37.356Z,86.0
2017-10-18T08:26:38.991Z,86.7
2017-10-18T08:27:40.626Z,86.2
2017-10-18T08:28:42.260Z,87.1
2017-10-18T08:29:43.895Z,86.5
2017-10-18T08:30:45.540Z,86.1
2017-10-18T08:31:47.176Z,85.4
2017-10-18T08:32:48.807Z,85.6
2017-10-18T08:33:50.441Z,86.6
2017-10-18T08:34:52.077Z,85.4
2017-10-18T08:35:53.713Z,83.9
2017-10-18T08:36:57.457Z,84.7
2017-10-18T08:37:59.090Z,84.6
2017-10-18T08:39:00.723Z,84.6
2017-10-18T08:40:02.357Z,83.9
2017-10-18T08:41:03.996Z,84.2
2017-10-18T08:42:05.624Z,83.9
2017-10-18T08:43:07.266Z,83.8
2017-10-18T08:44:08.890Z,84.1
2017-10-18T08:45:10.528Z,84.2
2017-10-18T08:46:12.156Z,84.2
2017-10-18T08:47:13.810Z,83.8
2017-10-18T08:48:15.446Z,84.1
2017-10-18T08:49:17.078Z,84.7
2017-10-18T08:50:18.731Z,84.6
2017-10-18T08:51:20.364Z,85.1
2017-10-18T08:52:21.992Z,85.2
2017-10-18T08:53:23.628Z,84.7
2017-10-18T08:54:25.259Z,84.5
2017-10-18T08:55:26.898Z,83.8
2017-10-18T08:56:28.526Z,84.0
2017-10-18T08:57:30.159Z,84.2
2017-10-18T08:58:31.795Z,85.0
2017-10-18T08:59:33.433Z,84.8
2017-10-18T09:00:35.066Z,84.3
2017-10-18T09:01:36.700Z,85.1
2017-10-18T09:02:38.333Z,85.2
2017-10-18T09:03:39.967Z,83.5
2017-10-18T09:04:41.608Z,83.2
2017-10-18T09:05:43.238Z,83.3
2017-10-18T09:06:44.869Z,81.6
2017-10-18T09:07:46.502Z,82.2
2017-10-18T09:08:48.133Z,81.6
2017-10-18T09:09:49.764Z,81.9
2017-10-18T09:10:51.399Z,82.5
2017-10-18T09:11:53.028Z,82.5
2017-10-18T09:12:54.664Z,82.9
2017-10-18T09:13:56.297Z,82.9
2017-10-18T09:14:57.927Z,83.2
2017-10-18T09:15:59.556Z,82.5
2017-10-18T09:17:01.194Z,81.6
2017-10-18T09:18:02.826Z,82.6
2017-10-18T09:19:04.456Z,81.6
2017-10-18T09:20:06.087Z,81.6
2017-10-18T09:21:07.763Z,81.5
2017-10-18T09:22:09.409Z,82.2
2017-10-18T09:23:11.038Z,79.1
2017-10-18T09:24:12.673Z,78.9
2017-10-18T09:25:14.305Z,78.7
2017-10-18T09:26:15.938Z,78.8
2017-10-18T09:27:17.571Z,78.5
2017-10-18T09:28:19.208Z,78.7
2017-10-18T09:29:20.836Z,78.2
2017-10-18T09:30:22.597Z,78.0
2017-10-18T09:31:24.202Z,78.6
2017-10-18T09:32:25.840Z,78.0
2017-10-18T09:33:27.477Z,78.6
2017-10-18T09:34:29.108Z,77.3
2017-10-18T09:35:30.750Z,77.1
2017-10-18T09:36:32.372Z,77.5
2017-10-18T09:37:34.004Z,77.6
2017-10-18T09:38:35.634Z,76.8
2017-10-18T09:39:37.267Z,77.6
2017-10-18T09:40:38.900Z,77.9
2017-10-18T09:41:40.536Z,76.9
2017-10-18T09:42:42.173Z,76.2
2017-10-18T09:43:43.801Z,75.6
2017-10-18T09:44:45.433Z,75.4
2017-10-18T09:45:47.065Z,75.6
2017-10-18T09:46:48.705Z,75.7
2017-10-18T09:47:50.329Z,75.7
2017-10-18T09:48:51.965Z,75.1
2017-10-18T09:49:53.595Z,75.4
2017-10-18T09:50:55.226Z,74.9
2017-10-18T09:51:56.856Z,74.2
2017-10-18T09:52:58.494Z,74.6
2017-10-18T09:54:00.127Z,75.4
2017-10-18T09:55:01.757Z,75.9
2017-10-18T09:56:03.392Z,75.3
2017-10-18T09:57:05.026Z,75.1
2017-10-18T09:58:06.658Z,74.9
2017-10-18T09:59:08.289Z,74.5
2017-10-18T10:00:09.921Z,73.4
2017-10-18T10:01:11.553Z,73.3
2017-10-18T10:02:13.188Z,74.6
2017-10-18T10:03:14.820Z,73.5
2017-10-18T10:04:16.450Z,72.5
2017-10-18T10:05:18.080Z,72.8
2017-10-18T10:06:19.723Z,73.0
2017-10-18T10:07:21.355Z,73.0
2017-10-18T10:08:22.986Z,73.1
2017-10-18T10:09:24.617Z,73.5
2017-10-18T10:10:26.264Z,72.7
2017-10-18T10:11:27.894Z,72.9
2017-10-18T10:12:29.522Z,73.0
2017-10-18T10:13:31.151Z,73.3
2017-10-18T10:14:32.781Z,72.8
2017-10-18T10:15:34.411Z,72.4
2017-10-18T10:16:36.079Z,72.7
2017-10-18T10:17:37.704Z,72.7
2017-10-18T10:18:39.336Z,72.7
2017-10-18T10:19:40.975Z,73.2
2017-10-18T10:20:42.596Z,72.6
2017-10-18T10:21:44.226Z,73.1
2017-10-18T10:22:45.856Z,71.8
2017-10-18T10:23:47.489Z,72.0
2017-10-18T10:24:49.120Z,72.3
2017-10-18T10:25:50.751Z,72.7
2017-10-18T10:26:52.380Z,72.6
2017-10-18T10:27:54.011Z,71.6
2017-10-18T10:28:55.647Z,71.8
2017-10-18T10:29:57.272Z,71.6
2017-10-18T10:30:58.946Z,72.0
2017-10-18T10:32:00.544Z,71.8
2017-10-18T10:33:02.201Z,71.6
2017-10-18T10:34:03.911Z,70.9
2017-10-18T10:35:05.547Z,70.5
2017-10-18T10:36:07.179Z,70.5
2017-10-18T10:37:08.809Z,70.5
2017-10-18T10:38:10.437Z,70.1
2017-10-18T10:39:12.074Z,70.3
2017-10-18T10:40:13.702Z,70.8
2017-10-18T10:41:15.335Z,70.4
2017-10-18T10:42:16.964Z,70.3
2017-10-18T10:43:18.620Z,69.6
2017-10-18T10:44:20.254Z,69.2
2017-10-18T10:45:21.886Z,69.1
2017-10-18T10:46:23.523Z,67.8
2017-10-18T10:47:25.157Z,67.1
2017-10-18T10:48:26.801Z,67.1
2017-10-18T10:49:28.433Z,67.1
2017-10-18T10:50:30.072Z,67.7
2017-10-18T10:51:31.715Z,67.2
2017-10-18T10:52:33.353Z,65.9
2017-10-18T10:53:34.984Z,65.4
2017-10-18T10:54:36.628Z,64.1
2017-10-18T10:55:38.269Z,64.1
2017-10-18T10:56:39.901Z,64.4
2017-10-18T10:57:41.537Z,64.5
2017-10-18T10:58:43.164Z,65.0
2017-10-18T10:59:44.818Z,65.0
2017-10-18T11:00:46.444Z,63.7
2017-10-18T11:01:48.076Z,64.2
2017-10-18T11:02:49.709Z,64.1
2017-10-18T11:03:51.343Z,64.4
2017-10-18T11:04:52.976Z,65.0
2017-10-18T11:05:54.610Z,64.4
2017-10-18T11:06:56.247Z,64.0
2017-10-18T11:07:57.882Z,64.6
2017-10-18T11:08:59.510Z,65.3
2017-10-18T11:10:01.153Z,65.8
2017-10-18T11:11:02.778Z,66.1
2017-10-18T11:12:04.412Z,65.9
2017-10-18T11:13:06.044Z,65.2
2017-10-18T11:14:07.679Z,64.1
2017-10-18T11:15:09.315Z,64.6
2017-10-18T11:16:10.949Z,64.9
2017-10-18T11:17:12.586Z,64.3
2017-10-18T11:18:14.216Z,64.6
2017-10-18T11:19:16.054Z,64.6
2017-10-18T11:20:17.693Z,64.2
2017-10-18T11:21:19.326Z,63.7
2017-10-18T11:22:20.963Z,62.6
2017-10-18T11:23:22.596Z,61.6
2017-10-18T11:24:24.234Z,60.4
2017-10-18T11:25:25.871Z,59.7
2017-10-18T11:26:27.510Z,58.4
2017-10-18T11:27:29.147Z,56.2
2017-10-18T11:28:30.783Z,53.7
2017-10-18T11:29:32.424Z,51.2
2017-10-18T11:30:34.060Z,51.2
2017-10-18T11:31:35.698Z,50.8
2017-10-18T11:32:37.338Z,48.4
2017-10-18T11:33:38.977Z,47.6
2017-10-18T11:34:40.651Z,45.5
2017-10-18T11:35:42.262Z,43.3
2017-10-18T11:36:43.902Z,43.3
2017-10-18T11:37:45.546Z,44.7
2017-10-18T11:38:47.191Z,45.6
2017-10-18T11:39:48.834Z,44.2
2017-10-18T11:40:50.487Z,43.9
2017-10-18T11:41:52.131Z,43.9
2017-10-18T11:42:53.771Z,42.8
2017-10-18T11:43:55.414Z,42.1
2017-10-18T11:44:57.054Z,41.6
2017-10-18T11:45:58.717Z,41.9
2017-10-18T11:47:00.394Z,40.6
2017-10-18T11:48:02.037Z,38.6
2017-10-18T11:49:03.678Z,38.8
2017-10-18T11:50:05.323Z,38.8
2017-10-18T11:51:06.981Z,39.6
2017-10-18T11:52:08.622Z,40.5
2017-10-18T11:53:10.267Z,42.6
2017-10-18T11:54:11.913Z,43.4
2017-10-18T11:55:13.555Z,43.4
2017-10-18T11:56:15.201Z,43.7
2017-10-18T11:57:16.846Z,42.7
2017-10-18T11:58:18.493Z,41.3
2017-10-18T11:59:20.139Z,38.5
2017-10-18T12:00:21.783Z,37.7
2017-10-18T12:01:23.432Z,37.9
2017-10-18T12:02:25.133Z,38.2
2017-10-18T12:03:26.938Z,37.2
2017-10-18T12:04:28.582Z,36.4
2017-10-18T12:05:30.229Z,36.7
2017-10-18T12:06:31.871Z,38.2
2017-10-18T12:07:33.521Z,38.1
2017-10-18T12:08:35.167Z,39.2
2017-10-18T12:09:36.810Z,38.2
2017-10-18T12:10:38.454Z,37.3
2017-10-18T12:11:40.098Z,37.0
2017-10-18T12:12:41.757Z,35.5
2017-10-18T12:13:43.401Z,34.4
2017-10-18T12:14:45.048Z,33.0
2017-10-18T12:15:47.639Z,32.4
2017-10-18T12:16:49.300Z,34.9
2017-10-18T12:17:50.989Z,35.5
2017-10-18T12:18:52.640Z,34.9
2017-10-18T12:19:54.288Z,33.0
2017-10-18T12:20:55.941Z,32.3
2017-10-18T12:21:57.587Z,31.3
2017-10-18T12:22:59.228Z,31.3
2017-10-18T12:24:00.872Z,29.8
2017-10-18T12:25:02.517Z,30.0
2017-10-18T12:26:04.170Z,29.0
2017-10-18T12:27:05.811Z,28.3
2017-10-18T12:28:07.458Z,28.7
2017-10-18T12:29:09.103Z,28.8
2017-10-18T12:30:10.758Z,28.5
2017-10-18T12:31:12.393Z,28.7
2017-10-18T12:32:14.066Z,29.8
2017-10-18T12:33:15.712Z,31.1
2017-10-18T12:34:17.376Z,31.3
2017-10-18T12:35:19.028Z,30.2
2017-10-18T12:36:20.693Z,28.6
2017-10-18T12:37:22.365Z,28.7
2017-10-18T12:38:23.986Z,27.7
2017-10-18T12:39:25.634Z,27.8
2017-10-18T12:40:27.295Z,26.6
2017-10-18T12:41:28.948Z,27.7
2017-10-18T12:42:30.581Z,27.3
2017-10-18T12:43:32.228Z,27.6
2017-10-18T12:44:33.871Z,26.3
2017-10-18T12:45:35.514Z,26.6
2017-10-18T12:46:37.157Z,27.3
2017-10-18T12:47:38.803Z,29.4
2017-10-18T12:48:42.640Z,29.3
2017-10-18T12:49:44.109Z,28.6
2017-10-18T12:50:45.751Z,28.7
2017-10-18T12:51:47.395Z,29.6
2017-10-18T12:52:49.038Z,29.9
2017-10-18T12:53:50.681Z,30.7
2017-10-18T12:54:52.324Z,30.6
2017-10-18T12:55:54.202Z,30.7
2017-10-18T12:56:55.850Z,29.7
2017-10-18T12:57:57.494Z,29.8
2017-10-18T12:58:59.974Z,29.4
2017-10-18T13:00:01.616Z,28.1
2017-10-18T13:01:03.260Z,28.2
2017-10-18T13:02:04.905Z,28.6
2017-10-18T13:03:06.553Z,28.6
2017-10-18T13:04:08.211Z,30.1
2017-10-18T13:05:09.842Z,31.2
2017-10-18T13:06:11.486Z,32.1
2017-10-18T13:07:13.129Z,32.6
2017-10-18T13:08:14.771Z,33.8
2017-10-18T13:09:16.413Z,32.7
2017-10-18T13:10:18.060Z,32.7
2017-10-18T13:11:19.731Z,31.9
2017-10-18T13:12:26.536Z,32.7
2017-10-18T13:13:27.184Z,32.8
2017-10-18T13:14:28.836Z,32.0
2017-10-18T13:15:33.815Z,30.9
2017-10-18T13:16:35.458Z,31.9
2017-10-18T13:17:37.106Z,31.2
2017-10-18T13:18:41.682Z,31.7
2017-10-18T13:19:43.148Z,30.9
2017-10-18T13:20:44.791Z,29.8
2017-10-18T13:21:46.436Z,29.9
2017-10-18T13:22:48.082Z,30.6
2017-10-18T13:23:49.724Z,31.0
2017-10-18T13:24:52.770Z,30.5
2017-10-18T13:25:54.411Z,29.1
2017-10-18T13:26:56.065Z,28.7
2017-10-18T13:27:57.707Z,28.9
2017-10-18T13:28:59.351Z,28.7
2017-10-18T13:30:01.644Z,28.9
2017-10-18T13:31:04.752Z,27.9
2017-10-18T13:32:08.825Z,27.8